createdAt,value
2022-10-09T00:05:44.522Z,83.04
2022-10-09T00:15:50.423Z,83.80
2022-10-09T00:25:57.891Z,84.25
2022-10-09T00:36:07.246Z,84.79
2022-10-09T00:46:34.397Z,85.13
2022-10-09T00:56:40.065Z,85.69
2022-10-09T01:07:03.364Z,86.20
2022-10-09T01:17:16.641Z,86.98
2022-10-09T01:27:24.747Z,86.68
2022-10-09T01:37:30.481Z,87.08
2022-10-09T01:47:36.148Z,87.14
2022-10-09T01:57:49.586Z,86.84
2022-10-09T02:07:56.327Z,86.41
2022-10-09T02:18:09.018Z,86.41
2022-10-09T02:28:14.696Z,85.95
2022-10-09T02:38:20.408Z,86.22
2022-10-09T02:48:26.198Z,86.60
2022-10-09T02:58:34.835Z,86.66
2022-10-09T03:08:41.680Z,86.74
2022-10-09T03:18:48.009Z,86.92
2022-10-09T03:28:54.612Z,87.31
2022-10-09T03:39:00.254Z,87.58
2022-10-09T03:49:05.899Z,88.16
2022-10-09T03:59:12.619Z,88.34
2022-10-09T04:09:18.246Z,88.16
2022-10-09T04:19:23.959Z,88.06
2022-10-09T04:29:29.529Z,88.05
2022-10-09T04:39:35.416Z,88.18
2022-10-09T04:49:40.983Z,87.96
2022-10-09T04:59:46.835Z,87.81
2022-10-09T05:09:52.482Z,87.63
2022-10-09T05:19:58.123Z,87.37
2022-10-09T05:30:04.141Z,87.35
2022-10-09T05:40:11.633Z,87.06
2022-10-09T05:50:17.568Z,86.84
2022-10-09T06:00:23.332Z,86.66
2022-10-09T06:10:32.472Z,86.47
2022-10-09T06:20:38.369Z,86.56
2022-10-09T06:30:44.081Z,86.32
2022-10-09T06:40:49.826Z,86.08
2022-10-09T06:50:55.581Z,86.06
2022-10-09T07:01:09.195Z,85.69
2022-10-09T07:11:17.387Z,85.53
2022-10-09T07:21:24.022Z,85.31
2022-10-09T07:31:29.809Z,85.13
2022-10-09T07:41:35.663Z,84.89
2022-10-09T07:51:41.332Z,84.62
2022-10-09T08:01:47.060Z,84.20
2022-10-09T08:11:52.700Z,83.79
2022-10-09T08:22:02.621Z,83.68
2022-10-09T08:32:09.364Z,82.99
2022-10-09T08:42:29.018Z,82.09
2022-10-09T08:52:46.805Z,81.02
2022-10-09T09:03:15.687Z,79.87
2022-10-09T09:13:38.951Z,77.79
2022-10-09T09:23:48.379Z,76.93
2022-10-09T09:34:00.856Z,76.14
2022-10-09T09:44:08.743Z,76.36
2022-10-09T09:54:17.869Z,75.96
2022-10-09T10:04:28.179Z,74.60
2022-10-09T10:14:35.421Z,72.88
2022-10-09T10:24:45.748Z,71.45
2022-10-09T10:34:57.858Z,69.85
2022-10-09T10:45:14.213Z,69.16
2022-10-09T10:55:32.096Z,68.16
2022-10-09T11:05:46.629Z,67.90
2022-10-09T11:16:02.332Z,66.99
2022-10-09T11:26:16.410Z,66.48
2022-10-09T11:36:27.365Z,65.36
2022-10-09T11:46:46.135Z,64.84
2022-10-09T11:57:00.703Z,64.98
2022-10-09T12:07:09.630Z,64.55
2022-10-09T12:17:34.367Z,63.91
2022-10-09T12:27:42.311Z,64.11
2022-10-09T12:37:48.123Z,63.28
2022-10-09T12:47:55.491Z,62.42
2022-10-09T12:58:07.908Z,62.09
2022-10-09T13:08:26.379Z,61.97
2022-10-09T13:18:32.054Z,62.17
2022-10-09T13:28:37.910Z,63.08
2022-10-09T13:38:44.249Z,63.25
2022-10-09T13:48:50.188Z,63.09
2022-10-09T13:58:56.195Z,63.17
2022-10-09T14:09:02.012Z,64.04
2022-10-09T14:19:08.257Z,64.63
2022-10-09T14:29:13.950Z,64.88
2022-10-09T14:39:19.796Z,65.17
2022-10-09T14:49:25.636Z,65.71
2022-10-09T14:59:31.858Z,66.12
2022-10-09T15:09:37.596Z,66.25
2022-10-09T15:19:43.341Z,67.04
2022-10-09T15:29:49.303Z,67.79
2022-10-09T15:39:55.041Z,68.51
2022-10-09T15:50:00.806Z,69.28
2022-10-09T16:00:07.949Z,70.36
2022-10-09T16:10:14.239Z,71.25
2022-10-09T16:20:20.045Z,72.09
2022-10-09T16:30:26.301Z,72.86
2022-10-09T16:40:57.425Z,73.66
2022-10-09T16:50:57.985Z,74.54
2022-10-09T17:01:09.645Z,74.95
2022-10-09T17:11:17.418Z,75.40
2022-10-09T17:21:23.031Z,76.08
2022-10-09T17:31:29.700Z,76.64
2022-10-09T17:41:36.530Z,77.55
2022-10-09T17:51:42.725Z,77.74
2022-10-09T18:01:48.466Z,77.73
2022-10-09T18:11:54.676Z,78.40
2022-10-09T18:22:00.729Z,79.81
2022-10-09T18:32:06.696Z,79.88
2022-10-09T18:42:13.190Z,79.75
2022-10-09T18:52:19.446Z,79.90
2022-10-09T19:02:27.200Z,80.06
2022-10-09T19:12:33.242Z,80.79
2022-10-09T19:22:40.251Z,81.41
2022-10-09T19:32:46.888Z,80.95
2022-10-09T19:42:52.963Z,81.12
2022-10-09T19:52:58.976Z,82.31
2022-10-09T20:03:04.644Z,82.03
2022-10-09T20:13:10.333Z,83.17
2022-10-09T20:23:16.058Z,83.52
2022-10-09T20:33:21.706Z,83.66
2022-10-09T20:43:27.369Z,83.67
2022-10-09T20:53:33.769Z,83.64
2022-10-09T21:03:40.161Z,83.51
2022-10-09T21:13:47.489Z,84.05
2022-10-09T21:23:55.809Z,84.00
2022-10-09T21:34:01.990Z,84.50
2022-10-09T21:44:08.844Z,84.80
2022-10-09T21:54:14.707Z,84.49
2022-10-09T22:04:20.492Z,84.83
2022-10-09T22:14:26.179Z,85.95
2022-10-09T22:24:32.955Z,85.93
2022-10-09T22:34:38.628Z,85.81
2022-10-09T22:44:44.303Z,85.96
2022-10-09T22:54:50.007Z,85.63
2022-10-09T23:04:55.707Z,85.82
2022-10-09T23:15:01.292Z,86.63
2022-10-09T23:25:08.366Z,87.42
2022-10-09T23:35:13.951Z,88.20
2022-10-09T23:45:19.627Z,88.88
2022-10-09T23:55:25.231Z,88.97
